Time;durP1;ratioP1;P1;durP2;ratioP2;P2;SDS_P1;SDS_P2;PMS_P1;PMS_P2;Temp;Humidity;BMP_temperature;BMP_pressure;BME280_temperature;BME280_humidity;BME280_pressure;Samples;Min_cycle;Max_cycle;Signal;HPM_P1;HPM_P2
2021/09/26 00:00:07;;;;;;;;;;;16.00;99.90;;;;;;8364044;28;20007;-63
2021/09/26 00:04:08;;;;;;;;;;;15.90;99.90;;;;;;8363759;28;20290;-64
2021/09/26 00:08:08;;;;;;;;;;;15.80;99.90;;;;;;8363895;28;19920;-63
2021/09/26 00:12:09;;;;;;;;;;;16.00;99.90;;;;;;8363490;28;19913;-63
2021/09/26 00:16:10;;;;;;;;;;;16.40;99.90;;;;;;8363410;28;19912;-63
2021/09/26 00:20:11;;;;;;;;;;;16.10;99.90;;;;;;8362066;28;20286;-63
2021/09/26 00:24:12;;;;;;;;;;;16.10;99.90;;;;;;8363109;28;19909;-63
2021/09/26 00:28:12;;;;;;;;;;;16.30;99.90;;;;;;8362004;28;19958;-63
2021/09/26 00:32:12;;;;;;;;;;;16.00;99.90;;;;;;8363389;28;19920;-63
2021/09/26 00:36:13;;;;;;;;;;;15.90;99.90;;;;;;8361620;28;19923;-63
2021/09/26 00:40:13;;;;;;;;;;;16.00;99.90;;;;;;8362636;28;19904;-63
2021/09/26 00:44:14;;;;;;;;;;;15.90;99.90;;;;;;8362878;28;19951;-64
2021/09/26 00:48:15;;;;;;;;;;;15.80;99.90;;;;;;8361253;28;20444;-63
2021/09/26 00:52:17;;;;;;;;;;;15.70;99.90;;;;;;8362502;28;19917;-63
2021/09/26 00:56:17;;;;;;;;;;;15.90;99.90;;;;;;8360328;28;20007;-63
2021/09/26 01:00:19;;;;;;;;;;;15.90;99.90;;;;;;8362074;28;19912;-63
2021/09/26 01:04:20;;;;;;;;;;;16.40;99.90;;;;;;8362128;28;19932;-63
2021/09/26 01:08:29;;;;;;;;;;;16.20;99.90;;;;;;8362097;28;19911;-63
2021/09/26 01:12:36;;;;;;;;;;;15.80;99.90;;;;;;8360577;28;19956;-63
2021/09/26 01:16:57;;;;;;;;;;;15.60;99.90;;;;;;8361770;28;19905;-63
2021/09/26 01:21:30;;;;;;;;;;;15.60;99.90;;;;;;8361597;28;19996;-63
2021/09/26 01:25:45;;;;;;;;;;;15.60;99.90;;;;;;8338037;28;19905;-63
2021/09/26 01:29:55;;;;;;;;;;;15.60;99.90;;;;;;8361775;28;19905;-63
2021/09/26 01:33:57;;;;;;;;;;;15.60;99.90;;;;;;8361450;28;19908;-63
2021/09/26 01:38:04;;;;;;;;;;;15.60;99.90;;;;;;8360828;28;19911;-63
2021/09/26 01:42:21;;;;;;;;;;;15.40;99.90;;;;;;8360113;28;19919;-63
2021/09/26 01:46:28;;;;;;;;;;;15.30;99.90;;;;;;8360938;28;19908;-63
2021/09/26 01:50:30;;;;;;;;;;;15.50;99.90;;;;;;8359483;28;19905;-63
2021/09/26 01:54:30;;;;;;;;;;;15.50;99.90;;;;;;8360912;28;19913;-63
2021/09/26 01:58:31;;;;;;;;;;;15.40;99.90;;;;;;8361095;28;19951;-63
2021/09/26 02:02:32;;;;;;;;;;;15.40;99.90;;;;;;8360656;28;20014;-63
2021/09/26 02:06:36;;;;;;;;;;;15.50;99.90;;;;;;8360002;28;19932;-63
2021/09/26 02:10:37;;;;;;;;;;;15.60;99.90;;;;;;8359287;28;20386;-63
2021/09/26 02:14:39;;;;;;;;;;;15.50;99.90;;;;;;8359681;28;19912;-63
2021/09/26 02:18:39;;;;;;;;;;;15.40;99.90;;;;;;8360263;28;20299;-63
2021/09/26 02:22:40;;;;;;;;;;;15.40;99.90;;;;;;8358422;28;19912;-63
2021/09/26 02:26:40;;;;;;;;;;;15.30;99.90;;;;;;8359427;28;19904;-63
2021/09/26 02:30:41;;;;;;;;;;;15.20;99.90;;;;;;8358638;28;20361;-63
2021/09/26 02:34:42;;;;;;;;;;;15.20;99.90;;;;;;8358075;28;20436;-63
2021/09/26 02:38:42;;;;;;;;;;;15.20;99.90;;;;;;8359297;28;19912;-63
2021/09/26 02:43:01;;;;;;;;;;;15.40;99.90;;;;;;8359530;28;19947;-63
2021/09/26 02:47:07;;;;;;;;;;;15.60;99.90;;;;;;8357946;28;19954;-63
2021/09/26 02:51:08;;;;;;;;;;;15.50;99.90;;;;;;8358903;28;20366;-63
2021/09/26 02:55:09;;;;;;;;;;;15.40;99.90;;;;;;8359077;28;19909;-63
2021/09/26 02:59:10;;;;;;;;;;;15.50;99.90;;;;;;8358094;28;19916;-64
2021/09/26 03:03:13;;;;;;;;;;;15.30;99.90;;;;;;8358702;28;20386;-63
2021/09/26 03:07:14;;;;;;;;;;;15.20;99.90;;;;;;8357531;28;19909;-63
2021/09/26 03:11:14;;;;;;;;;;;15.10;99.90;;;;;;8358913;28;19931;-63
2021/09/26 03:15:15;;;;;;;;;;;15.20;99.90;;;;;;8358392;28;20279;-64
2021/09/26 03:19:15;;;;;;;;;;;15.40;99.90;;;;;;8358131;28;20363;-63
2021/09/26 03:23:16;;;;;;;;;;;15.50;99.90;;;;;;8364126;28;19959;-63
2021/09/26 03:27:16;;;;;;;;;;;15.50;99.90;;;;;;8365160;28;20361;-63
2021/09/26 03:31:17;;;;;;;;;;;15.50;99.90;;;;;;8365204;28;20329;-63
2021/09/26 03:35:18;;;;;;;;;;;15.40;99.90;;;;;;8364755;28;20355;-63
2021/09/26 03:39:18;;;;;;;;;;;15.20;99.90;;;;;;8364700;28;19919;-63
2021/09/26 03:43:19;;;;;;;;;;;15.50;99.90;;;;;;8364876;28;20007;-64
2021/09/26 03:47:19;;;;;;;;;;;15.30;99.90;;;;;;8364600;28;19959;-63
2021/09/26 03:51:20;;;;;;;;;;;15.30;99.90;;;;;;8363912;28;19931;-63
2021/09/26 03:55:21;;;;;;;;;;;15.30;99.90;;;;;;8364292;28;19904;-63
2021/09/26 03:59:22;;;;;;;;;;;15.30;99.90;;;;;;8364398;28;19913;-63
2021/09/26 04:03:22;;;;;;;;;;;15.30;99.90;;;;;;8362606;28;19955;-64
2021/09/26 04:07:23;;;;;;;;;;;15.20;99.90;;;;;;8362726;28;19917;-63
2021/09/26 04:11:23;;;;;;;;;;;15.10;99.90;;;;;;8363859;28;19909;-63
2021/09/26 04:15:24;;;;;;;;;;;15.10;99.90;;;;;;8363492;28;19905;-64
2021/09/26 04:19:24;;;;;;;;;;;15.60;99.90;;;;;;8363676;28;19904;-63
2021/09/26 04:23:25;;;;;;;;;;;15.40;99.90;;;;;;8362507;28;19912;-63
2021/09/26 04:27:26;;;;;;;;;;;15.30;99.90;;;;;;8363307;28;19905;-63
2021/09/26 04:31:26;;;;;;;;;;;15.10;99.90;;;;;;8362531;28;19916;-64
2021/09/26 04:35:27;;;;;;;;;;;15.00;99.90;;;;;;8363084;28;20419;-63
2021/09/26 04:39:27;;;;;;;;;;;15.00;99.90;;;;;;8363112;28;19912;-63
2021/09/26 04:43:27;;;;;;;;;;;15.10;99.90;;;;;;8363525;28;19946;-63
2021/09/26 04:47:28;;;;;;;;;;;14.90;99.90;;;;;;8362716;28;20289;-64
2021/09/26 04:51:28;;;;;;;;;;;14.60;99.90;;;;;;8369741;28;20373;-63
2021/09/26 04:55:29;;;;;;;;;;;14.50;99.90;;;;;;8362689;28;20290;-63
2021/09/26 04:59:29;;;;;;;;;;;14.60;99.90;;;;;;8360922;28;19958;-63
2021/09/26 05:03:30;;;;;;;;;;;15.00;99.90;;;;;;8362371;28;19950;-63
2021/09/26 05:07:30;;;;;;;;;;;14.80;99.90;;;;;;8362137;28;19913;-63
2021/09/26 05:11:31;;;;;;;;;;;14.70;99.90;;;;;;8360677;28;19955;-63
2021/09/26 05:15:32;;;;;;;;;;;14.70;99.90;;;;;;8361442;28;19911;-63
2021/09/26 05:19:32;;;;;;;;;;;14.70;99.90;;;;;;8361631;28;19959;-63
2021/09/26 05:23:34;;;;;;;;;;;14.50;99.90;;;;;;8361921;28;19919;-63
2021/09/26 05:27:35;;;;;;;;;;;14.30;99.90;;;;;;8361734;28;19905;-63
2021/09/26 05:31:35;;;;;;;;;;;14.30;99.90;;;;;;8361438;28;19916;-63
2021/09/26 05:35:36;;;;;;;;;;;14.20;99.90;;;;;;8361023;28;20559;-63
2021/09/26 05:39:36;;;;;;;;;;;14.10;99.90;;;;;;8368453;28;19908;-63
2021/09/26 05:43:37;;;;;;;;;;;14.20;99.90;;;;;;8392931;28;19908;-63
2021/09/26 05:47:37;;;;;;;;;;;14.30;99.90;;;;;;8387368;28;19909;-63
2021/09/26 05:51:38;;;;;;;;;;;14.30;99.90;;;;;;8360396;28;19915;-64
2021/09/26 05:55:38;;;;;;;;;;;14.20;99.90;;;;;;8360600;28;19905;-63
2021/09/26 05:59:39;;;;;;;;;;;14.40;99.90;;;;;;8360181;28;19909;-63
2021/09/26 06:03:41;;;;;;;;;;;14.60;99.90;;;;;;8358968;28;19908;-63
2021/09/26 06:07:42;;;;;;;;;;;14.80;99.90;;;;;;8360341;28;19905;-63
2021/09/26 06:11:42;;;;;;;;;;;14.80;99.90;;;;;;8360192;28;19908;-63
2021/09/26 06:15:43;;;;;;;;;;;14.90;99.90;;;;;;8366195;28;19916;-63
2021/09/26 06:19:43;;;;;;;;;;;15.00;99.90;;;;;;8374182;28;19912;-64
2021/09/26 06:23:44;;;;;;;;;;;15.40;99.90;;;;;;8373946;28;19912;-63
2021/09/26 06:27:44;;;;;;;;;;;15.50;99.90;;;;;;8375192;28;20375;-64
2021/09/26 06:31:48;;;;;;;;;;;15.50;99.90;;;;;;8376551;28;20409;-63
2021/09/26 06:35:48;;;;;;;;;;;15.80;99.90;;;;;;8377304;28;19908;-63
2021/09/26 06:39:50;;;;;;;;;;;15.90;99.90;;;;;;8377040;28;19954;-63
2021/09/26 06:43:51;;;;;;;;;;;16.00;99.90;;;;;;8374274;28;19905;-63
2021/09/26 06:47:51;;;;;;;;;;;16.20;99.90;;;;;;8375057;28;19999;-63
2021/09/26 06:51:52;;;;;;;;;;;16.30;99.90;;;;;;8370951;28;20298;-63
2021/09/26 06:55:52;;;;;;;;;;;16.50;99.90;;;;;;8360149;28;20528;-63
2021/09/26 06:59:54;;;;;;;;;;;16.70;99.90;;;;;;8359138;28;19905;-64
2021/09/26 07:03:54;;;;;;;;;;;17.00;99.90;;;;;;8359012;28;19955;-63
2021/09/26 07:07:55;;;;;;;;;;;17.40;99.90;;;;;;8382329;28;19909;-64
2021/09/26 07:11:55;;;;;;;;;;;17.70;99.90;;;;;;8392061;28;19981;-64
2021/09/26 07:15:56;;;;;;;;;;;18.00;99.90;;;;;;8390216;28;19999;-64
2021/09/26 07:19:57;;;;;;;;;;;18.60;99.90;;;;;;8363968;28;19915;-65
2021/09/26 07:23:57;;;;;;;;;;;19.00;99.90;;;;;;8358897;28;20446;-64
2021/09/26 07:27:58;;;;;;;;;;;19.20;99.90;;;;;;8361483;28;19915;-64
2021/09/26 07:31:58;;;;;;;;;;;19.40;99.90;;;;;;8391897;28;19908;-64
2021/09/26 07:35:59;;;;;;;;;;;19.40;99.90;;;;;;8382708;28;20426;-64
2021/09/26 07:39:59;;;;;;;;;;;19.50;99.90;;;;;;8359479;28;19916;-65
2021/09/26 07:44:00;;;;;;;;;;;19.80;99.90;;;;;;8359014;28;20379;-64
2021/09/26 07:48:01;;;;;;;;;;;19.90;99.90;;;;;;8383057;28;20359;-65
2021/09/26 07:52:01;;;;;;;;;;;20.30;99.90;;;;;;8389921;28;19908;-64
2021/09/26 07:56:03;;;;;;;;;;;20.50;99.90;;;;;;8391163;28;20433;-65
2021/09/26 08:00:04;;;;;;;;;;;20.40;99.90;;;;;;8380897;28;20027;-65
2021/09/26 08:04:06;;;;;;;;;;;20.40;99.90;;;;;;8373694;28;19908;-64
2021/09/26 08:08:07;;;;;;;;;;;20.80;99.90;;;;;;8372288;28;19955;-65
2021/09/26 08:12:07;;;;;;;;;;;20.90;99.90;;;;;;8372318;28;19912;-64
2021/09/26 08:16:08;;;;;;;;;;;21.00;99.90;;;;;;8379322;28;19913;-65
2021/09/26 08:20:09;;;;;;;;;;;21.10;99.90;;;;;;8371743;28;20014;-65
2021/09/26 08:24:10;;;;;;;;;;;21.40;99.90;;;;;;8377122;28;19909;-64
2021/09/26 08:28:11;;;;;;;;;;;21.50;99.90;;;;;;8391996;28;19927;-65
2021/09/26 08:32:12;;;;;;;;;;;21.80;99.90;;;;;;8375632;28;20455;-65
2021/09/26 08:36:12;;;;;;;;;;;22.00;99.90;;;;;;8385388;28;19908;-64
2021/09/26 08:40:13;;;;;;;;;;;22.30;99.90;;;;;;8378624;28;19916;-65
2021/09/26 08:44:14;;;;;;;;;;;23.10;99.90;;;;;;8363867;28;19916;-65
2021/09/26 08:48:14;;;;;;;;;;;23.30;99.90;;;;;;8375882;28;20375;-65
2021/09/26 08:52:15;;;;;;;;;;;23.30;99.90;;;;;;8377560;28;19913;-65
2021/09/26 08:56:17;;;;;;;;;;;22.90;99.90;;;;;;8360893;28;20287;-64
2021/09/26 09:00:17;;;;;;;;;;;22.50;99.90;;;;;;8387917;28;19913;-64
2021/09/26 09:04:32;;;;;;;;;;;22.20;99.90;;;;;;8379405;28;19920;-65
2021/09/26 09:08:38;;;;;;;;;;;22.10;99.90;;;;;;8392697;28;19909;-65
2021/09/26 09:12:39;;;;;;;;;;;22.10;99.90;;;;;;8373688;28;20493;-64
2021/09/26 09:16:39;;;;;;;;;;;22.40;99.90;;;;;;8363854;28;20057;-65
2021/09/26 09:20:40;;;;;;;;;;;22.60;99.90;;;;;;8360699;28;19975;-64
2021/09/26 09:24:41;;;;;;;;;;;22.80;99.90;;;;;;8361526;28;19905;-64
2021/09/26 09:28:41;;;;;;;;;;;22.40;99.90;;;;;;8375781;28;19935;-64
2021/09/26 09:32:52;;;;;;;;;;;22.10;99.90;;;;;;8393852;28;19912;-64
2021/09/26 09:37:07;;;;;;;;;;;22.30;99.90;;;;;;8394041;28;19906;-65
2021/09/26 09:41:08;;;;;;;;;;;22.00;99.90;;;;;;8375599;28;20544;-64
2021/09/26 09:45:14;;;;;;;;;;;22.30;99.90;;;;;;8391537;28;19911;-64
2021/09/26 09:49:19;;;;;;;;;;;22.50;99.90;;;;;;8376950;28;19988;-64
2021/09/26 09:53:29;;;;;;;;;;;22.70;99.90;;;;;;8371457;28;20375;-65
2021/09/26 09:57:30;;;;;;;;;;;23.00;99.90;;;;;;8369125;28;19963;-64
2021/09/26 10:01:32;;;;;;;;;;;22.80;99.90;;;;;;8360160;28;19905;-64
2021/09/26 10:05:33;;;;;;;;;;;22.80;99.90;;;;;;8379902;28;19915;-64
2021/09/26 10:09:39;;;;;;;;;;;22.70;99.90;;;;;;8378378;28;19912;-64
2021/09/26 10:13:39;;;;;;;;;;;22.60;99.90;;;;;;8366878;28;19943;-64
2021/09/26 10:17:40;;;;;;;;;;;23.00;99.90;;;;;;8359384;28;19916;-64
2021/09/26 10:21:41;;;;;;;;;;;22.90;99.90;;;;;;8370054;28;19912;-64
2021/09/26 10:25:41;;;;;;;;;;;22.40;99.90;;;;;;8386048;28;20393;-64
2021/09/26 10:29:42;;;;;;;;;;;22.40;99.90;;;;;;8374573;28;19961;-64
2021/09/26 10:33:44;;;;;;;;;;;22.60;99.90;;;;;;8372870;28;20385;-64
2021/09/26 10:37:45;;;;;;;;;;;22.80;99.90;;;;;;8373162;28;19978;-64
2021/09/26 10:42:06;;;;;;;;;;;23.40;99.90;;;;;;8359218;28;19940;-64
2021/09/26 10:46:14;;;;;;;;;;;23.90;99.90;;;;;;8359108;28;19912;-64
2021/09/26 10:50:15;;;;;;;;;;;25.50;99.90;;;;;;8370980;28;20378;-64
2021/09/26 10:54:22;;;;;;;;;;;25.40;99.90;;;;;;8363788;28;19931;-64
2021/09/26 10:58:23;;;;;;;;;;;26.10;99.90;;;;;;8359090;28;20355;-64
2021/09/26 11:02:24;;;;;;;;;;;26.70;99.90;;;;;;8371514;28;19977;-65
2021/09/26 11:06:28;;;;;;;;;;;27.60;99.90;;;;;;8371123;28;19923;-64
2021/09/26 11:10:48;;;;;;;;;;;28.90;99.90;;;;;;8370740;28;20289;-64
2021/09/26 11:15:18;;;;;;;;;;;28.70;99.90;;;;;;8373544;28;19943;-64
2021/09/26 11:19:19;;;;;;;;;;;28.10;99.90;;;;;;8361431;28;19924;-63
2021/09/26 11:23:20;;;;;;;;;;;26.50;99.90;;;;;;8368298;28;19920;-64
2021/09/26 11:27:22;;;;;;;;;;;26.30;99.90;;;;;;8367429;28;19912;-63
2021/09/26 11:31:40;;;;;;;;;;;26.80;99.90;;;;;;8371702;28;19916;-64
2021/09/26 11:35:41;;;;;;;;;;;26.00;99.90;;;;;;8364597;28;19916;-64
2021/09/26 11:39:49;;;;;;;;;;;25.00;99.90;;;;;;8376323;28;19912;-64
2021/09/26 11:44:03;;;;;;;;;;;25.60;99.90;;;;;;8378954;28;19916;-64
2021/09/26 11:48:05;;;;;;;;;;;28.50;99.90;;;;;;8368111;28;19948;-64
2021/09/26 11:52:05;;;;;;;;;;;30.50;98.50;;;;;;8377038;28;19912;-64
2021/09/26 11:56:10;;;;;;;;;;;31.60;94.40;;;;;;8378172;28;19919;-64
2021/09/26 12:00:27;;;;;;;;;;;32.40;90.40;;;;;;8367448;28;19962;-64
2021/09/26 12:04:28;;;;;;;;;;;32.40;86.40;;;;;;8384138;28;19913;-63
2021/09/26 12:08:41;;;;;;;;;;;31.10;87.00;;;;;;8392878;28;19908;-64
2021/09/26 12:12:42;;;;;;;;;;;30.50;90.30;;;;;;8382065;28;20371;-64
2021/09/26 12:16:42;;;;;;;;;;;30.80;88.40;;;;;;8375211;28;19919;-64
2021/09/26 12:20:43;;;;;;;;;;;30.00;90.50;;;;;;8364849;28;19923;-64
2021/09/26 12:24:43;;;;;;;;;;;30.10;88.70;;;;;;8369412;28;19996;-64
2021/09/26 12:28:44;;;;;;;;;;;29.00;92.10;;;;;;8353626;28;19915;-64
2021/09/26 12:32:52;;;;;;;;;;;28.60;93.00;;;;;;8374083;28;20608;-64
2021/09/26 12:36:53;;;;;;;;;;;28.30;93.60;;;;;;8390657;28;20393;-64
2021/09/26 12:41:02;;;;;;;;;;;29.00;92.50;;;;;;8367981;28;19916;-64
2021/09/26 12:45:18;;;;;;;;;;;28.90;92.20;;;;;;8371831;28;19966;-64
2021/09/26 12:49:19;;;;;;;;;;;27.70;94.50;;;;;;8360454;28;20102;-64
2021/09/26 12:53:25;;;;;;;;;;;26.20;97.40;;;;;;8370717;28;19922;-63
2021/09/26 12:57:27;;;;;;;;;;;25.50;99.10;;;;;;8374609;28;19919;-64
2021/09/26 13:01:30;;;;;;;;;;;25.00;99.90;;;;;;8359175;28;20397;-64
2021/09/26 13:05:35;;;;;;;;;;;24.60;99.90;;;;;;8376841;28;20002;-64
2021/09/26 13:09:41;;;;;;;;;;;24.60;99.90;;;;;;8375541;28;19916;-65
2021/09/26 13:13:43;;;;;;;;;;;24.40;99.90;;;;;;8365490;28;19912;-65
2021/09/26 13:17:44;;;;;;;;;;;24.40;99.90;;;;;;8365579;28;19908;-65
2021/09/26 13:21:57;;;;;;;;;;;24.30;99.90;;;;;;8359881;28;20367;-64
2021/09/26 13:26:08;;;;;;;;;;;24.10;99.90;;;;;;8374992;28;19963;-65
2021/09/26 13:30:20;;;;;;;;;;;24.30;99.90;;;;;;8364558;28;20378;-65
2021/09/26 13:34:31;;;;;;;;;;;24.20;99.90;;;;;;8367714;28;19927;-65
2021/09/26 13:38:31;;;;;;;;;;;24.40;99.90;;;;;;8380321;28;19916;-64
2021/09/26 13:42:34;;;;;;;;;;;24.40;99.90;;;;;;8363248;28;20456;-65
2021/09/26 13:46:34;;;;;;;;;;;24.40;99.90;;;;;;8362660;28;19935;-65
2021/09/26 13:50:36;;;;;;;;;;;24.50;99.90;;;;;;8365157;28;19909;-64
2021/09/26 13:54:37;;;;;;;;;;;24.40;99.90;;;;;;8352522;28;20371;-65
2021/09/26 13:58:37;;;;;;;;;;;24.10;99.90;;;;;;8356034;28;19909;-65
2021/09/26 14:02:38;;;;;;;;;;;24.00;99.90;;;;;;8355719;28;19920;-64
2021/09/26 14:06:39;;;;;;;;;;;23.80;99.90;;;;;;8353822;28;19912;-65
2021/09/26 14:10:42;;;;;;;;;;;23.70;99.90;;;;;;8366291;28;19954;-65
2021/09/26 14:14:44;;;;;;;;;;;23.70;99.90;;;;;;8361706;28;19958;-65
2021/09/26 14:18:45;;;;;;;;;;;23.90;99.90;;;;;;8379386;28;20443;-64
2021/09/26 14:22:46;;;;;;;;;;;23.80;99.90;;;;;;8376496;28;19916;-64
2021/09/26 14:26:46;;;;;;;;;;;23.70;99.90;;;;;;8369101;28;20359;-64
2021/09/26 14:30:47;;;;;;;;;;;23.60;99.90;;;;;;8373607;28;19916;-64
2021/09/26 14:34:50;;;;;;;;;;;23.20;99.90;;;;;;8369902;28;20124;-65
2021/09/26 14:38:50;;;;;;;;;;;22.90;99.90;;;;;;8364979;28;19921;-65
2021/09/26 14:42:51;;;;;;;;;;;22.40;99.90;;;;;;8369641;28;19917;-64
2021/09/26 14:46:52;;;;;;;;;;;22.20;99.90;;;;;;8360170;28;20516;-65
2021/09/26 14:50:53;;;;;;;;;;;22.10;99.90;;;;;;8358857;28;20716;-64
2021/09/26 14:54:53;;;;;;;;;;;22.10;99.90;;;;;;8357917;28;19921;-64
2021/09/26 14:58:55;;;;;;;;;;;21.90;99.90;;;;;;8356600;28;19995;-64
2021/09/26 15:02:55;;;;;;;;;;;21.60;99.90;;;;;;8365863;28;20467;-64
2021/09/26 15:06:56;;;;;;;;;;;21.60;99.90;;;;;;8366539;28;19912;-64
2021/09/26 15:10:56;;;;;;;;;;;21.60;99.90;;;;;;8381445;28;19920;-64
2021/09/26 15:14:57;;;;;;;;;;;21.40;99.90;;;;;;8371506;28;19921;-64
2021/09/26 15:18:58;;;;;;;;;;;21.20;99.90;;;;;;8372510;28;19975;-64
2021/09/26 15:22:58;;;;;;;;;;;21.20;99.90;;;;;;8373570;28;19947;-65
2021/09/26 15:26:59;;;;;;;;;;;21.10;99.90;;;;;;8380125;28;19960;-65
2021/09/26 15:31:00;;;;;;;;;;;20.90;99.90;;;;;;8392013;28;20318;-64
2021/09/26 15:35:00;;;;;;;;;;;20.80;99.90;;;;;;8381489;28;20062;-65
2021/09/26 15:39:02;;;;;;;;;;;20.70;99.90;;;;;;8373657;28;19916;-65
2021/09/26 15:43:03;;;;;;;;;;;20.70;99.90;;;;;;8375203;28;20436;-65
2021/09/26 15:47:04;;;;;;;;;;;20.80;99.90;;;;;;8368854;28;19993;-65
2021/09/26 15:51:05;;;;;;;;;;;20.80;99.90;;;;;;8367646;28;19978;-65
2021/09/26 15:55:06;;;;;;;;;;;20.60;99.90;;;;;;8365853;28;19917;-65
2021/09/26 15:59:07;;;;;;;;;;;20.50;99.90;;;;;;8366538;28;19999;-64
2021/09/26 16:03:07;;;;;;;;;;;20.20;99.90;;;;;;8391022;28;20481;-65
2021/09/26 16:07:08;;;;;;;;;;;20.10;99.90;;;;;;8365074;28;20005;-65
2021/09/26 16:11:08;;;;;;;;;;;19.90;99.90;;;;;;8379976;28;19985;-64
2021/09/26 16:15:11;;;;;;;;;;;19.80;99.90;;;;;;8383437;28;19912;-65
2021/09/26 16:19:12;;;;;;;;;;;19.60;99.90;;;;;;8373057;28;19920;-64
2021/09/26 16:23:14;;;;;;;;;;;19.60;99.90;;;;;;8364752;28;19924;-64
2021/09/26 16:27:15;;;;;;;;;;;19.40;99.90;;;;;;8391399;28;19919;-64
2021/09/26 16:31:19;;;;;;;;;;;19.40;99.90;;;;;;8391659;28;20264;-64
2021/09/26 16:35:21;;;;;;;;;;;19.30;99.90;;;;;;8364957;28;20126;-64
2021/09/26 16:39:21;;;;;;;;;;;19.00;99.90;;;;;;8360171;28;19935;-65
2021/09/26 16:43:22;;;;;;;;;;;18.90;99.90;;;;;;8359292;28;19963;-65
2021/09/26 16:47:22;;;;;;;;;;;19.00;99.90;;;;;;8358208;28;19920;-65
2021/09/26 16:51:24;;;;;;;;;;;19.20;99.90;;;;;;8384397;28;20398;-64
2021/09/26 16:55:26;;;;;;;;;;;18.90;99.90;;;;;;8369107;28;19970;-65
2021/09/26 16:59:26;;;;;;;;;;;18.90;99.90;;;;;;8360596;28;19916;-64
2021/09/26 17:03:27;;;;;;;;;;;19.10;99.90;;;;;;8382882;28;20011;-64
2021/09/26 17:07:27;;;;;;;;;;;18.90;99.90;;;;;;8377843;28;20395;-64
2021/09/26 17:11:28;;;;;;;;;;;18.70;99.90;;;;;;8387773;28;19924;-65
2021/09/26 17:15:30;;;;;;;;;;;18.50;99.90;;;;;;8372874;28;19961;-64
2021/09/26 17:19:30;;;;;;;;;;;18.50;99.90;;;;;;8360244;28;19917;-64
2021/09/26 17:23:31;;;;;;;;;;;18.30;99.90;;;;;;8360478;28;20371;-64
2021/09/26 17:27:32;;;;;;;;;;;18.20;99.90;;;;;;8364321;28;20337;-64
2021/09/26 17:31:33;;;;;;;;;;;18.20;99.90;;;;;;8361648;28;20017;-64
2021/09/26 17:35:33;;;;;;;;;;;18.00;99.90;;;;;;8364709;28;19913;-64
2021/09/26 17:39:34;;;;;;;;;;;18.00;99.90;;;;;;8365204;28;19916;-64
2021/09/26 17:43:39;;;;;;;;;;;18.00;99.90;;;;;;8372573;28;19912;-64
2021/09/26 17:47:39;;;;;;;;;;;17.90;99.90;;;;;;8370479;28;20005;-64
2021/09/26 17:51:41;;;;;;;;;;;17.80;99.90;;;;;;8371166;28;19924;-64
2021/09/26 17:55:43;;;;;;;;;;;17.90;99.90;;;;;;8359148;28;19929;-64
2021/09/26 17:59:43;;;;;;;;;;;17.80;99.90;;;;;;8374773;28;19948;-64
2021/09/26 18:03:45;;;;;;;;;;;17.70;99.90;;;;;;8370040;28;19971;-64
2021/09/26 18:07:45;;;;;;;;;;;17.70;99.90;;;;;;8358183;28;20003;-65
2021/09/26 18:11:46;;;;;;;;;;;17.50;99.90;;;;;;8368721;28;19916;-65
2021/09/26 18:15:47;;;;;;;;;;;17.50;99.90;;;;;;8365792;28;19975;-65
2021/09/26 18:19:48;;;;;;;;;;;17.60;99.90;;;;;;8353383;28;20025;-65
2021/09/26 18:23:50;;;;;;;;;;;17.70;99.90;;;;;;8353281;28;20407;-65
2021/09/26 18:27:50;;;;;;;;;;;17.70;99.90;;;;;;8380846;28;19917;-66
2021/09/26 18:31:51;;;;;;;;;;;17.60;99.90;;;;;;8377925;28;20386;-64
2021/09/26 18:35:52;;;;;;;;;;;17.50;99.90;;;;;;8365769;28;19916;-65
2021/09/26 18:39:53;;;;;;;;;;;17.70;99.90;;;;;;8376105;28;19965;-65
2021/09/26 18:43:53;;;;;;;;;;;17.60;99.90;;;;;;8380463;28;20003;-65
2021/09/26 18:47:54;;;;;;;;;;;17.60;99.90;;;;;;8361827;28;19955;-65
2021/09/26 18:51:54;;;;;;;;;;;17.40;99.90;;;;;;8369909;28;19921;-65
2021/09/26 18:55:55;;;;;;;;;;;17.30;99.90;;;;;;8368296;28;19913;-65
2021/09/26 18:59:56;;;;;;;;;;;17.30;99.90;;;;;;8371089;28;19920;-65
2021/09/26 19:03:58;;;;;;;;;;;17.20;99.90;;;;;;8368788;28;19983;-65
2021/09/26 19:07:59;;;;;;;;;;;17.20;99.90;;;;;;8368435;28;19959;-65
2021/09/26 19:12:00;;;;;;;;;;;17.10;99.90;;;;;;8360979;28;20291;-64
2021/09/26 19:16:01;;;;;;;;;;;17.00;99.90;;;;;;8368483;28;19920;-65
2021/09/26 19:20:02;;;;;;;;;;;17.00;99.90;;;;;;8367928;28;19913;-65
2021/09/26 19:24:03;;;;;;;;;;;17.10;99.90;;;;;;8368357;28;19921;-65
2021/09/26 19:28:04;;;;;;;;;;;17.20;99.90;;;;;;8363569;28;20426;-66
2021/09/26 19:32:04;;;;;;;;;;;17.20;99.90;;;;;;8369764;28;20019;-65
2021/09/26 19:36:05;;;;;;;;;;;17.00;99.90;;;;;;8377551;28;19916;-65
2021/09/26 19:40:06;;;;;;;;;;;16.90;99.90;;;;;;8374011;28;19951;-65
2021/09/26 19:44:07;;;;;;;;;;;17.00;99.90;;;;;;8372114;28;19917;-65
2021/09/26 19:48:08;;;;;;;;;;;17.20;99.90;;;;;;8367987;28;20294;-65
2021/09/26 19:52:08;;;;;;;;;;;17.00;99.90;;;;;;8367585;28;19962;-65
2021/09/26 19:56:09;;;;;;;;;;;16.90;99.90;;;;;;8370264;28;19909;-65
2021/09/26 20:00:11;;;;;;;;;;;16.90;99.90;;;;;;8370794;28;19987;-65
2021/09/26 20:04:12;;;;;;;;;;;16.70;99.90;;;;;;8369253;28;19962;-65
2021/09/26 20:08:12;;;;;;;;;;;16.80;99.90;;;;;;8384941;28;20251;-65
2021/09/26 20:12:13;;;;;;;;;;;16.60;99.90;;;;;;8376931;28;19927;-65
2021/09/26 20:16:14;;;;;;;;;;;16.40;99.90;;;;;;8373937;28;19924;-65
2021/09/26 20:20:15;;;;;;;;;;;16.60;99.90;;;;;;8370863;28;19913;-65
2021/09/26 20:24:17;;;;;;;;;;;16.40;99.90;;;;;;8380109;28;19974;-65
2021/09/26 20:28:18;;;;;;;;;;;16.40;99.90;;;;;;8378579;28;20394;-65
2021/09/26 20:32:18;;;;;;;;;;;16.40;99.90;;;;;;8384478;28;19921;-65
2021/09/26 20:36:21;;;;;;;;;;;16.30;99.90;;;;;;8360010;28;19917;-65
2021/09/26 20:40:23;;;;;;;;;;;16.20;99.90;;;;;;8381757;28;19917;-65
2021/09/26 20:44:24;;;;;;;;;;;16.40;99.90;;;;;;8375028;28;19928;-65
2021/09/26 20:48:24;;;;;;;;;;;16.30;99.90;;;;;;8362217;28;19920;-65
2021/09/26 20:52:25;;;;;;;;;;;16.30;99.90;;;;;;8362854;28;20294;-65
2021/09/26 20:56:25;;;;;;;;;;;16.20;99.90;;;;;;8362628;28;20345;-65
2021/09/26 21:00:26;;;;;;;;;;;16.30;99.90;;;;;;8362639;28;19923;-65
2021/09/26 21:04:27;;;;;;;;;;;16.10;99.90;;;;;;8361227;28;19913;-65
2021/09/26 21:08:27;;;;;;;;;;;16.10;99.90;;;;;;8361314;28;19913;-65
2021/09/26 21:12:28;;;;;;;;;;;16.40;99.90;;;;;;8360672;28;20303;-65
2021/09/26 21:16:28;;;;;;;;;;;16.40;99.90;;;;;;8361415;28;19913;-65
2021/09/26 21:20:31;;;;;;;;;;;16.30;99.90;;;;;;8360718;28;20291;-65
2021/09/26 21:24:32;;;;;;;;;;;16.20;99.90;;;;;;8361780;28;19919;-65
2021/09/26 21:28:32;;;;;;;;;;;16.30;99.90;;;;;;8362146;28;19916;-65
2021/09/26 21:32:33;;;;;;;;;;;16.10;99.90;;;;;;8361808;28;19913;-65
2021/09/26 21:36:33;;;;;;;;;;;16.00;99.90;;;;;;8361381;28;19909;-65
2021/09/26 21:40:35;;;;;;;;;;;16.00;99.90;;;;;;8361436;28;19916;-65
2021/09/26 21:44:36;;;;;;;;;;;15.90;99.90;;;;;;8360995;28;19964;-65
2021/09/26 21:48:36;;;;;;;;;;;16.10;99.90;;;;;;8360677;28;19917;-65
2021/09/26 21:52:37;;;;;;;;;;;16.10;99.90;;;;;;8362048;28;20457;-65
2021/09/26 21:56:38;;;;;;;;;;;16.20;99.90;;;;;;8374600;28;20004;-65
2021/09/26 22:00:40;;;;;;;;;;;16.20;99.90;;;;;;8375183;28;20430;-65
2021/09/26 22:04:41;;;;;;;;;;;16.20;99.90;;;;;;8384751;28;19917;-65
2021/09/26 22:08:42;;;;;;;;;;;16.10;99.90;;;;;;8372807;28;20421;-65
2021/09/26 22:12:42;;;;;;;;;;;16.00;99.90;;;;;;8389923;28;20017;-65
2021/09/26 22:16:43;;;;;;;;;;;16.10;99.90;;;;;;8391816;28;19966;-65
2021/09/26 22:20:46;;;;;;;;;;;16.20;99.90;;;;;;8362643;28;20368;-65
2021/09/26 22:24:47;;;;;;;;;;;15.90;99.90;;;;;;8359528;28;20568;-66
2021/09/26 22:28:49;;;;;;;;;;;15.80;99.90;;;;;;8359919;28;19915;-65
2021/09/26 22:32:50;;;;;;;;;;;15.80;99.90;;;;;;8359989;28;19956;-65
2021/09/26 22:36:53;;;;;;;;;;;15.70;99.90;;;;;;8359966;28;20343;-65
2021/09/26 22:40:53;;;;;;;;;;;15.70;99.90;;;;;;8360129;28;20000;-65
2021/09/26 22:44:54;;;;;;;;;;;15.70;99.90;;;;;;8360067;28;19909;-65
2021/09/26 22:48:54;;;;;;;;;;;15.80;99.90;;;;;;8359991;28;19978;-66
2021/09/26 22:52:54;;;;;;;;;;;15.70;99.90;;;;;;8359565;28;19967;-65
2021/09/26 22:56:55;;;;;;;;;;;15.60;99.90;;;;;;8359289;28;19908;-66
2021/09/26 23:00:58;;;;;;;;;;;15.80;99.90;;;;;;8359514;28;19912;-65
2021/09/26 23:04:59;;;;;;;;;;;16.00;99.90;;;;;;8358014;28;19909;-65
2021/09/26 23:08:59;;;;;;;;;;;15.70;99.90;;;;;;8359102;28;19948;-65
2021/09/26 23:13:01;;;;;;;;;;;15.50;99.90;;;;;;8358702;28;19921;-65
2021/09/26 23:17:04;;;;;;;;;;;15.40;99.90;;;;;;8358891;28;19913;-65
2021/09/26 23:21:05;;;;;;;;;;;15.50;99.90;;;;;;8392315;28;19917;-65
2021/09/26 23:25:05;;;;;;;;;;;15.50;99.90;;;;;;8390572;28;20451;-65